Time;durP1;ratioP1;P1;durP2;ratioP2;P2;SDS_P1;SDS_P2;PMS_P1;PMS_P2;Temp;Humidity;BMP_temperature;BMP_pressure;BME280_temperature;BME280_humidity;BME280_pressure;Samples;Min_cycle;Max_cycle;Signal;HPM_P1;HPM_P2
2023/06/05 00:00:04;;;;;;;11.20;6.80;;;;;;;13.14;47.39;101042.59;111149;1258;21985;-80
2023/06/05 00:03:28;;;;;;;13.00;6.70;;;;;;;13.13;47.28;101043.14;111202;1258;21955;-81
2023/06/05 00:07:00;;;;;;;10.40;6.40;;;;;;;13.10;47.29;101045.19;110829;1264;22027;-82
2023/06/05 00:10:35;;;;;;;10.20;7.10;;;;;;;13.07;47.29;101043.20;110054;1268;22469;-79
2023/06/05 00:14:01;;;;;;;12.10;7.00;;;;;;;13.04;47.43;101045.75;109853;1268;21971;-80
2023/06/05 00:17:00;;;;;;;8.10;6.50;;;;;;;13.05;47.25;101051.13;109812;1268;23619;-80
2023/06/05 00:20:19;;;;;;;9.10;5.80;;;;;;;13.03;47.11;101050.87;109636;1273;24326;-80
2023/06/05 00:23:19;;;;;;;13.00;7.90;;;;;;;12.99;47.05;101048.54;109497;1272;23607;-81
2023/06/05 00:26:35;;;;;;;12.30;7.40;;;;;;;12.97;47.19;101049.52;109568;1267;21867;-81
2023/06/05 00:29:34;;;;;;;11.00;6.80;;;;;;;12.94;47.20;101052.59;109828;1268;22054;-81
2023/06/05 00:32:50;;;;;;;12.50;7.70;;;;;;;12.91;47.24;101054.27;109620;1271;23589;-83
2023/06/05 00:36:22;;;;;;;10.00;8.50;;;;;;;12.89;47.28;101053.96;109241;1276;23959;-81
2023/06/05 00:39:44;;;;;;;15.40;8.90;;;;;;;12.84;47.39;101054.68;110271;1261;22049;-82
2023/06/05 00:43:28;;;;;;;10.70;8.50;;;;;;;12.79;47.43;101053.30;109549;1273;22286;-81
2023/06/05 00:47:00;;;;;;;11.90;9.50;;;;;;;12.75;47.51;101049.59;109599;1261;23065;-80
2023/06/05 00:50:34;;;;;;;;;;;;;;;;;;;;;
2023/06/05 00:54:15;;;;;;;15.20;11.30;;;;;;;12.64;47.51;101047.34;109823;1267;21972;-80
2023/06/05 00:57:19;;;;;;;13.40;10.90;;;;;;;12.63;47.48;101046.38;109962;1270;22026;-80
2023/06/05 01:00:44;;;;;;;15.80;12.70;;;;;;;12.57;47.48;101032.76;110219;1264;23146;-78
2023/06/05 01:04:19;;;;;;;;;;;;;;;;;;;;;
2023/06/05 01:08:05;;;;;;;9.90;8.70;;;;;;;12.54;47.20;101035.66;110550;1264;23704;-80
2023/06/05 01:11:33;;;;;;;15.10;9.70;;;;;;;12.46;47.63;101037.00;110686;1263;23739;-79
2023/06/05 01:15:05;;;;;;;11.30;9.40;;;;;;;12.37;47.98;101037.84;110821;1258;23041;-80
2023/06/05 01:18:22;;;;;;;12.80;10.60;;;;;;;12.28;48.35;101035.86;110757;1258;21961;-80
2023/06/05 01:21:35;;;;;;;17.90;10.30;;;;;;;12.18;49.04;101037.94;110906;1258;21959;-80
2023/06/05 01:24:35;;;;;;;19.90;12.20;;;;;;;12.11;49.52;101031.39;110855;1262;23839;-81
2023/06/05 01:28:22;;;;;;;16.20;12.10;;;;;;;12.03;49.77;101030.60;110522;1262;21987;-80
2023/06/05 01:32:14;;;;;;;14.20;11.30;;;;;;;11.89;50.51;101032.96;109576;1272;23595;-81
2023/06/05 01:35:30;;;;;;;15.10;12.00;;;;;;;11.82;51.08;101033.35;108865;1282;21891;-79
2023/06/05 01:38:56;;;;;;;19.30;12.50;;;;;;;11.79;51.32;101030.30;108803;1282;23743;-78
2023/06/05 01:41:53;;;;;;;;;;;;;;;;;;;;;
2023/06/05 01:44:47;;;;;;;26.30;12.90;;;;;;;11.77;51.56;101028.61;108793;1284;22827;-81
2023/06/05 01:48:04;;;;;;;24.30;13.40;;;;;;;11.73;51.75;101035.00;108599;1284;23127;-83
2023/06/05 01:51:16;;;;;;;20.90;11.30;;;;;;;11.66;51.97;101034.35;108878;1283;23637;-80
2023/06/05 01:54:28;;;;;;;25.30;12.70;;;;;;;11.62;52.11;101035.52;109383;1274;21995;-80
2023/06/05 01:57:28;;;;;;;17.80;12.30;;;;;;;11.52;52.41;101027.84;109460;1274;22160;-80
2023/06/05 02:01:05;;;;;;;21.00;12.20;;;;;;;11.47;52.66;101030.23;109522;1269;23033;-80
2023/06/05 02:04:35;;;;;;;;;;;;;;;;;;;;;
2023/06/05 02:08:09;;;;;;;15.50;12.50;;;;;;;11.32;53.16;101028.41;108853;1280;22048;-79
2023/06/05 02:10:43;;;;;;;17.00;13.20;;;;;;;11.29;53.40;101027.98;109019;1280;22848;-79
2023/06/05 02:14:00;;;;;;;;;;;;;;;;;;;;;
2023/06/05 02:17:03;;;;;;;18.80;13.00;;;;;;;11.27;53.80;101024.03;108518;1279;22017;-80
2023/06/05 02:19:44;;;;;;;19.60;12.70;;;;;;;11.29;54.00;101023.28;108330;1287;22043;-80
2023/06/05 02:22:55;;;;;;;;;;;;;;;;;;;;;
2023/06/05 02:26:51;;;;;;;16.40;12.80;;;;;;;11.22;54.12;101018.27;109562;1272;22065;-80
2023/06/05 02:29:51;;;;;;;22.10;13.10;;;;;;;11.14;54.31;101015.19;109589;1272;23125;-80
2023/06/05 02:33:06;;;;;;;21.90;15.10;;;;;;;11.10;54.42;101016.71;110163;1268;22056;-81
2023/06/05 02:36:59;;;;;;;;;;;;;;;;;;;;;
2023/06/05 02:39:09;;;;;;;17.40;14.00;;;;;;;10.94;54.64;101017.17;109220;1277;22043;-82
2023/06/05 02:42:08;;;;;;;22.00;15.70;;;;;;;10.91;54.76;101019.52;108909;1281;23715;-81
2023/06/05 02:45:14;;;;;;;25.90;14.60;;;;;;;10.85;54.80;101012.71;108694;1286;21998;-81
2023/06/05 02:48:23;;;;;;;23.50;15.70;;;;;;;11.02;54.82;101022.88;108187;1287;543951;-79
2023/06/05 02:51:44;;;;;;;20.50;15.80;;;;;;;10.94;55.22;101018.89;110042;1268;22989;-81
2023/06/05 02:54:44;;;;;;;18.40;15.90;;;;;;;10.95;55.53;101017.85;110128;1268;22499;-80
2023/06/05 02:58:08;;;;;;;23.70;17.50;;;;;;;10.96;55.66;101018.16;110206;1268;21969;-79
2023/06/05 03:01:57;;;;;;;;;;;;;;;;;;;;;
2023/06/05 03:05:13;;;;;;;20.50;17.10;;;;;;;10.97;55.70;101009.96;110934;1258;23033;-80
2023/06/05 03:08:31;;;;;;;24.90;20.20;;;;;;;11.02;55.81;101018.50;110967;1256;22051;-82
2023/06/05 03:11:25;;;;;;;23.40;20.80;;;;;;;11.05;55.57;101019.66;110675;1262;21979;-79
2023/06/05 03:14:21;;;;;;;27.30;21.10;;;;;;;11.04;55.69;101022.46;110451;1262;21939;-81
2023/06/05 03:17:34;;;;;;;;;;;;;;;;;;;;;
2023/06/05 03:20:59;;;;;;;29.00;20.70;;;;;;;11.11;56.01;101020.50;110799;1262;21964;-79
2023/06/05 03:24:16;;;;;;;;;;;;;;;;;;;;;
2023/06/05 03:27:21;;;;;;;26.20;20.40;;;;;;;11.25;56.10;101013.83;109804;1270;21982;-80
2023/06/05 03:30:16;;;;;;;26.40;18.20;;;;;;;11.33;56.04;101012.55;109745;1270;22010;-79
2023/06/05 03:33:19;;;;;;;23.30;18.30;;;;;;;11.43;56.10;101014.17;109883;1270;21975;-79
2023/06/05 03:36:20;;;;;;;;;;;;;;;;;;;;;
2023/06/05 03:39:20;;;;;;;27.40;20.10;;;;;;;11.57;56.09;101010.92;110559;1261;23046;-80
2023/06/05 03:42:33;;;;;;;26.10;18.20;;;;;;;11.64;56.19;101005.31;110863;1261;22038;-79
2023/06/05 03:45:43;;;;;;;26.90;20.90;;;;;;;11.72;56.16;101005.55;110540;1260;23777;-79
2023/06/05 03:49:47;;;;;;;25.80;19.70;;;;;;;11.81;56.20;101003.71;110875;1262;21970;-80
2023/06/05 03:52:27;;;;;;;;;;;;;;;;;;;;;
2023/06/05 03:55:25;;;;;;;28.80;18.00;;;;;;;12.08;56.25;101007.90;110574;1262;21966;-79
2023/06/05 03:58:44;;;;;;;23.60;16.80;;;;;;;12.26;56.13;101013.61;109880;1268;23627;-81
2023/06/05 04:02:07;;;;;;;21.00;16.60;;;;;;;12.40;55.46;101015.55;109337;1275;22857;-81
2023/06/05 04:05:05;;;;;;;18.90;16.90;;;;;;;12.60;54.89;101014.52;109176;1275;23602;-78
2023/06/05 04:08:00;;;;;;;24.50;16.80;;;;;;;12.75;54.20;101017.83;109042;1275;23709;-79
2023/06/05 04:11:54;;;;;;;;;;;;;;;;;;;;;
2023/06/05 04:15:09;;;;;;;22.20;15.50;;;;;;;13.01;52.53;101016.52;108948;1281;21994;-80
2023/06/05 04:17:51;;;;;;;;;;;;;;;13.22;52.33;101018.69;108725;1280;23776;-80
2023/06/05 04:21:09;;;;;;;;;;;;;;;;;;;;;
2023/06/05 04:24:47;;;;;;;;;;;;;;;;;;;;;
2023/06/05 04:28:04;;;;;;;;;;;;;;;;;;;;;
2023/06/05 04:32:00;;;;;;;16.70;13.30;;;;;;;14.33;49.57;101023.70;110199;1267;21948;-79
2023/06/05 04:35:05;;;;;;;19.90;12.30;;;;;;;14.73;48.78;101020.91;110081;1264;23726;-79
2023/06/05 04:38:07;;;;;;;20.20;12.40;;;;;;;15.16;48.09;101024.95;110243;1265;22181;-79
2023/06/05 04:41:10;;;;;;;14.10;11.50;;;;;;;15.68;47.86;101024.25;110207;1265;22055;-81
2023/06/05 04:44:38;;;;;;;14.60;10.60;;;;;;;16.42;46.53;101024.12;109687;1270;21972;-79
2023/06/05 04:48:06;;;;;;;16.90;11.30;;;;;;;16.99;45.79;101024.14;109870;1268;21975;-78
2023/06/05 04:51:01;;;;;;;16.30;9.30;;;;;;;17.74;44.36;101021.26;110328;1261;23032;-80
2023/06/05 04:53:48;;;;;;;13.00;10.00;;;;;;;18.24;42.62;101019.60;110730;1261;23314;-77
2023/06/05 04:56:52;;;;;;;14.40;9.10;;;;;;;18.58;41.21;101017.94;110547;1261;22013;-77
2023/06/05 04:59:33;;;;;;;10.50;8.10;;;;;;;19.07;40.89;101015.77;110585;1261;22023;-78
2023/06/05 05:02:28;;;;;;;13.90;9.10;;;;;;;19.48;38.96;101012.34;110536;1261;24051;-78
2023/06/05 05:05:22;;;;;;;12.20;10.60;;;;;;;19.79;39.08;101008.41;109493;1270;21970;-77
2023/06/05 05:08:26;;;;;;;12.40;11.00;;;;;;;20.29;38.70;101013.32;109331;1273;23699;-80
2023/06/05 05:11:18;;;;;;;11.70;9.00;;;;;;;20.86;37.86;101015.30;109009;1278;22067;-80
2023/06/05 05:14:00;;;;;;;10.10;9.00;;;;;;;21.13;36.22;101014.82;108846;1278;22027;-80
2023/06/05 05:17:16;;;;;;;9.70;8.10;;;;;;;21.36;35.93;101014.00;108774;1278;22408;-80
2023/06/05 05:20:22;;;;;;;14.70;8.60;;;;;;;21.62;35.23;101020.08;108754;1280;22002;-79
2023/06/05 05:23:47;;;;;;;9.80;8.90;;;;;;;21.68;34.63;101019.83;108780;1277;23700;-79
2023/06/05 05:27:22;;;;;;;12.60;8.60;;;;;;;21.81;34.48;101016.58;109012;1277;22090;-79
2023/06/05 05:30:50;;;;;;;12.20;8.30;;;;;;;22.07;33.81;101030.58;109229;1275;21977;-79
2023/06/05 05:34:12;;;;;;;16.80;8.00;;;;;;;22.30;33.73;101028.70;108592;1284;21994;-79
2023/06/05 05:37:16;;;;;;;10.90;8.30;;;;;;;22.60;33.43;101028.04;108611;1280;23800;-80
2023/06/05 05:39:58;;;;;;;9.80;7.10;;;;;;;22.88;33.07;101023.11;109243;1276;21985;-79
2023/06/05 05:43:14;;;;;;;12.70;7.10;;;;;;;23.10;32.39;101026.92;109301;1276;22017;-78
2023/06/05 05:46:38;;;;;;;15.20;6.80;;;;;;;23.41;31.99;101024.45;108983;1279;22026;-78
2023/06/05 05:50:21;;;;;;;;;;;;;;;;;;;;;
2023/06/05 05:53:08;;;;;;;10.70;5.40;;;;;;;23.92;30.25;101032.55;109523;1270;21988;-82
2023/06/05 05:56:18;;;;;;;10.40;5.90;;;;;;;23.90;30.19;101030.23;109778;1270;22057;-79
2023/06/05 05:59:19;;;;;;;10.20;6.50;;;;;;;24.25;30.64;101035.67;109814;1270;21956;-78
2023/06/05 06:02:54;;;;;;;10.90;6.20;;;;;;;24.65;29.63;101037.57;110022;1269;22071;-79
2023/06/05 06:05:41;;;;;;;;;;;;;;;24.77;29.44;101036.20;110007;1269;22018;-79
2023/06/05 06:08:32;;;;;;;;;;;;;;;;;;;;;
2023/06/05 06:12:13;;;;;;;;;;;;;;;;;;;;;
2023/06/05 06:15:22;;;;;;;10.60;5.70;;;;;;;25.48;28.56;101040.96;109996;1266;21997;-79
2023/06/05 06:18:02;;;;;;;9.60;4.50;;;;;;;25.65;28.73;101040.34;110243;1266;22328;-79
2023/06/05 06:21:20;;;;;;;;;;;;;;;;;;;;;
2023/06/05 06:24:18;;;;;;;7.10;3.80;;;;;;;25.96;27.88;101050.27;110416;1260;23651;-79
2023/06/05 06:27:14;;;;;;;5.10;3.60;;;;;;;26.10;27.43;101055.52;110726;1260;22052;-78
2023/06/05 06:30:02;;;;;;;14.20;3.60;;;;;;;26.19;27.17;101054.50;110855;1260;22148;-78
2023/06/05 06:33:07;;;;;;;6.20;3.50;;;;;;;26.22;27.04;101052.70;110876;1260;22259;-78
2023/06/05 06:36:01;;;;;;;8.00;3.60;;;;;;;26.23;26.57;101054.55;110874;1258;21968;-79
2023/06/05 06:39:10;;;;;;;;;;;;;;;;;;;;;
2023/06/05 06:42:10;;;;;;;;;;;;;;;;;;;;;
2023/06/05 06:45:56;;;;;;;6.20;3.10;;;;;;;26.33;26.06;101045.73;111550;1254;23580;-80
2023/06/05 06:49:40;;;;;;;;;;;;;;;;;;;;;
2023/06/05 06:53:16;;;;;;;7.90;2.80;;;;;;;26.54;25.76;101046.77;110591;1262;21975;-80
2023/06/05 06:56:11;;;;;;;6.70;1.90;;;;;;;26.68;25.99;101043.67;110296;1262;22034;-79
2023/06/05 06:59:24;;;;;;;;;;;;;;;;;;;;;
2023/06/05 07:02:30;;;;;;;9.40;2.10;;;;;;;27.12;25.16;101040.05;110818;1262;21938;-80
2023/06/05 07:05:15;;;;;;;6.60;2.30;;;;;;;27.01;24.75;101045.23;110643;1260;22438;-79
2023/06/05 07:09:56;;;;;;;;;;;;;;;;;;;;;
2023/06/05 07:12:46;;;;;;;5.10;2.30;;;;;;;26.69;24.86;101051.99;109317;1275;22054;-82
2023/06/05 07:15:50;;;;;;;;;;;;;;;;;;;;;
2023/06/05 07:19:11;;;;;;;5.20;2.30;;;;;;;27.00;24.37;101055.31;108732;1284;22758;-77
2023/06/05 07:22:04;;;;;;;8.00;2.60;;;;;;;27.00;24.45;101048.83;108518;1284;22070;-82
2023/06/05 07:25:06;;;;;;;4.90;2.60;;;;;;;27.24;24.41;101048.71;108630;1278;22003;-78
2023/06/05 07:27:59;;;;;;;6.70;2.80;;;;;;;27.50;24.18;101050.45;109155;1278;21980;-80
2023/06/05 07:31:49;;;;;;;8.10;2.20;;;;;;;27.65;23.89;101045.82;109826;1266;22378;-79
2023/06/05 07:34:47;;;;;;;3.80;2.00;;;;;;;27.67;23.71;101044.00;109879;1268;21942;-80
2023/06/05 07:38:16;;;;;;;5.80;1.70;;;;;;;27.79;23.40;101044.52;110816;1262;21965;-80
2023/06/05 07:41:15;;;;;;;5.70;1.80;;;;;;;28.01;23.26;101047.88;110415;1262;21981;-80
2023/06/05 07:44:57;;;;;;;5.40;2.00;;;;;;;28.25;22.68;101042.64;110523;1262;21969;-78
2023/06/05 07:48:01;;;;;;;4.70;1.60;;;;;;;28.29;21.92;101041.86;110674;1260;22041;-80
2023/06/05 07:50:41;;;;;;;3.80;2.10;;;;;;;28.38;22.06;101041.65;110720;1262;22734;-80
2023/06/05 07:53:41;;;;;;;5.50;1.30;;;;;;;28.73;21.93;101041.18;110774;1262;22039;-80
2023/06/05 07:56:43;;;;;;;3.50;1.30;;;;;;;28.85;21.63;101046.82;110309;1267;23592;-78
2023/06/05 07:59:27;;;;;;;8.70;1.50;;;;;;;28.74;21.15;101042.13;110100;1267;22182;-81
2023/06/05 08:03:03;;;;;;;;;;;;;;;;;;;;;
2023/06/05 08:06:04;;;;;;;3.50;1.60;;;;;;;28.89;21.54;101040.73;110549;1261;22038;-80
2023/06/05 08:09:37;;;;;;;;;;;;;;;;;;;;;
2023/06/05 08:12:31;;;;;;;;;;;;;;;29.43;20.68;101040.05;109971;1270;21959;-80
2023/06/05 08:16:15;;;;;;;5.10;1.50;;;;;;;29.46;20.37;101039.17;110165;1265;21971;-81
2023/06/05 08:19:24;;;;;;;4.40;1.30;;;;;;;29.28;20.41;101044.56;109162;1278;23085;-80
2023/06/05 08:22:39;;;;;;;3.10;1.30;;;;;;;29.32;20.33;101039.46;109144;1277;23741;-79
2023/06/05 08:25:15;;;;;;;3.40;1.40;;;;;;;29.41;20.04;101040.42;108869;1281;22298;-79
2023/06/05 08:28:22;;;;;;;3.50;1.20;;;;;;;29.40;19.80;101044.36;108612;1284;23074;-79
2023/06/05 08:31:09;;;;;;;7.40;1.60;;;;;;;29.36;19.90;101041.66;108575;1284;22248;-79
2023/06/05 08:33:49;;;;;;;7.70;1.60;;;;;;;29.59;19.68;101039.55;108687;1284;21999;-79
2023/06/05 08:36:32;;;;;;;7.80;1.70;;;;;;;29.69;19.33;101036.59;108518;1284;22012;-81
2023/06/05 08:39:26;;;;;;;;;;;;;;;;;;;;;
2023/06/05 08:53:55;;;;;;;;;;;;;;;;;;;;;
2023/06/05 08:56:58;;;;;;;;;;;;;;;;;;;;;
2023/06/05 09:00:12;;;;;;;;;;;;;;;;;;;;;
2023/06/05 09:03:01;;;;;;;3.40;1.00;;;;;;;30.55;17.42;101033.40;111419;1254;21983;-79
2023/06/05 09:05:36;;;;;;;3.50;1.00;;;;;;;30.42;17.45;101030.52;110704;1261;23711;-79
2023/06/05 09:09:01;;;;;;;2.00;0.90;;;;;;;30.60;17.52;101029.81;110168;1267;21829;-79
2023/06/05 09:12:03;;;;;;;2.80;1.20;;;;;;;30.96;16.92;101030.10;109459;1272;23608;-80
2023/06/05 09:15:03;;;;;;;1.40;0.90;;;;;;;31.03;16.74;101026.79;109386;1272;22261;-80
2023/06/05 09:18:15;;;;;;;4.20;1.20;;;;;;;31.09;16.66;101026.46;109108;1275;23106;-78
2023/06/05 09:21:18;;;;;;;6.70;1.60;;;;;;;31.13;16.39;101024.92;109060;1275;23777;-79
2023/06/05 09:24:21;;;;;;;1.40;1.20;;;;;;;31.08;16.09;101017.89;109076;1274;22334;-79
2023/06/05 09:27:20;;;;;;;2.60;1.20;;;;;;;31.03;15.79;101020.16;109525;1270;23730;-78
2023/06/05 09:30:57;;;;;;;2.80;1.30;;;;;;;31.15;16.03;101011.35;109421;1270;22245;-79
2023/06/05 09:34:02;;;;;;;2.70;1.20;;;;;;;31.50;15.88;101010.60;108878;1283;22948;-79
2023/06/05 09:37:25;;;;;;;;;;;;;;;;;;;;;
2023/06/05 09:40:19;;;;;;;1.80;1.20;;;;;;;31.66;16.05;101011.52;108394;1287;22011;-78
2023/06/05 09:42:57;;;;;;;6.30;1.30;;;;;;;31.37;15.60;101008.09;108648;1281;23622;-79
2023/06/05 09:45:45;;;;;;;4.40;1.30;;;;;;;30.98;16.11;101006.98;108718;1281;23811;-78
2023/06/05 09:49:17;;;;;;;1.90;1.00;;;;;;;30.85;16.23;101009.59;108878;1276;23708;-80
2023/06/05 09:52:07;;;;;;;2.90;1.10;;;;;;;30.43;16.10;101004.23;108828;1282;22306;-79
2023/06/05 09:55:06;;;;;;;3.70;2.00;;;;;;;30.40;16.36;101008.31;108641;1279;23622;-78
2023/06/05 09:58:14;;;;;;;2.20;1.00;;;;;;;30.69;16.29;101007.76;109145;1279;21954;-79
2023/06/05 10:01:11;;;;;;;2.50;1.40;;;;;;;30.67;16.21;101011.98;108752;1279;23691;-78
2023/06/05 10:04:49;;;;;;;1.70;1.20;;;;;;;30.12;16.23;101013.36;109022;1275;23713;-83
2023/06/05 10:08:28;;;;;;;;;;;;;;;;;;;;;
2023/06/05 10:12:19;;;;;;;;;;;;;;;;;;;;;
2023/06/05 10:15:43;;;;;;;;;;;;;;;;;;;;;
2023/06/05 10:19:24;;;;;;;4.40;1.50;;;;;;;29.49;17.20;100977.75;109938;1269;21988;-79
2023/06/05 10:22:20;;;;;;;7.10;3.00;;;;;;;29.43;17.55;100974.32;109160;1270;21988;-79
2023/06/05 10:25:39;;;;;;;;;;;;;;;;;;;;;
2023/06/05 10:29:21;;;;;;;2.50;1.50;;;;;;;29.29;17.58;100969.89;109275;1271;21973;-79
2023/06/05 10:32:57;;;;;;;2.50;1.70;;;;;;;28.75;17.82;100972.09;109509;1271;22329;-79
2023/06/05 10:36:00;;;;;;;8.80;1.50;;;;;;;28.54;17.89;100974.88;109546;1271;23748;-78
2023/06/05 10:39:25;;;;;;;3.90;1.30;;;;;;;28.18;17.86;100969.68;109201;1277;21988;-79
2023/06/05 10:42:27;;;;;;;3.30;2.10;;;;;;;27.95;18.45;100962.13;108891;1277;24327;-80
2023/06/05 10:45:50;;;;;;;5.50;1.10;;;;;;;28.01;18.68;100955.63;109008;1277;22095;-81
2023/06/05 10:49:19;;;;;;;3.40;2.00;;;;;;;28.09;18.71;100956.95;109218;1274;22026;-79
2023/06/05 10:52:37;;;;;;;13.40;11.50;;;;;;;27.91;18.66;100946.82;109184;1274;21987;-79
2023/06/05 10:55:32;;;;;;;5.70;1.80;;;;;;;27.89;18.89;100948.24;108754;1280;23656;-80
2023/06/05 10:58:24;;;;;;;4.10;1.50;;;;;;;27.64;18.66;100947.70;108788;1273;23991;-79
2023/06/05 11:01:35;;;;;;;3.40;1.30;;;;;;;27.23;18.68;100949.84;109142;1280;22007;-79
2023/06/05 11:04:51;;;;;;;5.40;4.30;;;;;;;26.72;18.84;100949.30;108807;1279;22009;-79
2023/06/05 11:07:46;;;;;;;5.60;2.30;;;;;;;26.48;19.43;100942.47;109062;1279;21999;-81
2023/06/05 11:11:27;;;;;;;;;;;;;;;;;;;;;
2023/06/05 11:14:49;;;;;;;3.30;1.40;;;;;;;26.36;19.41;100946.21;109059;1277;22061;-78
2023/06/05 11:17:51;;;;;;;6.80;1.50;;;;;;;26.03;19.54;100946.53;109480;1273;22015;-79
2023/06/05 11:20:43;;;;;;;8.40;2.70;;;;;;;25.81;19.94;100943.33;110011;1269;23035;-78
2023/06/05 11:24:00;;;;;;;4.60;3.10;;;;;;;25.71;20.02;100939.63;110038;1269;22724;-79
2023/06/05 11:26:42;;;;;;;3.50;1.90;;;;;;;25.73;20.37;100936.25;109407;1272;21983;-80
2023/06/05 11:29:25;;;;;;;4.80;2.60;;;;;;;25.87;20.42;100938.14;109766;1271;24505;-79
2023/06/05 11:32:16;;;;;;;3.80;1.70;;;;;;;25.90;20.26;100937.00;109881;1266;21981;-82
2023/06/05 11:38:57;;;;;;;3.90;1.40;;;;;;;25.35;20.49;100939.38;110099;1264;23638;-78
2023/06/05 11:41:35;;;;;;;5.20;1.50;;;;;;;25.15;20.95;100928.00;110072;1267;22001;-79
2023/06/05 11:45:03;;;;;;;9.60;1.50;;;;;;;25.15;21.27;100927.77;110409;1265;21963;-79
2023/06/05 11:47:33;;;;;;;7.90;1.60;;;;;;;25.18;20.96;100925.40;110615;1265;21980;-81
2023/06/05 11:50:11;;;;;;;2.70;1.50;;;;;;;25.11;21.19;100923.90;110108;1260;23606;-80
2023/06/05 11:52:43;;;;;;;4.50;1.50;;;;;;;25.01;21.29;100925.52;111055;1260;22184;-79
2023/06/05 11:55:22;;;;;;;2.30;1.80;;;;;;;24.96;21.43;100924.38;110939;1259;23619;-79
2023/06/05 11:58:00;;;;;;;3.00;2.10;;;;;;;24.97;21.39;100925.11;110757;1259;21962;-81
2023/06/05 12:00:30;;;;;;;2.70;1.50;;;;;;;24.90;21.25;100920.82;110786;1259;23702;-81
2023/06/05 12:03:01;;;;;;;4.90;1.90;;;;;;;24.90;21.42;100917.87;110743;1257;23023;-80
2023/06/05 12:05:35;;;;;;;2.20;1.30;;;;;;;24.94;21.61;100910.65;111163;1257;21964;-83
2023/06/05 12:08:26;;;;;;;5.30;2.10;;;;;;;25.04;21.83;100907.27;111000;1257;23625;-80
2023/06/05 12:11:03;;;;;;;2.40;1.50;;;;;;;25.21;21.85;100908.56;110732;1250;22855;-80
2023/06/05 12:13:56;;;;;;;2.60;1.40;;;;;;;25.33;21.59;100903.80;110340;1266;21979;-81
2023/06/05 12:16:37;;;;;;;1.90;1.20;;;;;;;25.32;21.48;100890.34;110422;1265;22465;-80
2023/06/05 12:19:17;;;;;;;5.00;1.50;;;;;;;25.36;21.62;100896.94;110518;1265;21967;-81
2023/06/05 12:22:06;;;;;;;5.80;1.20;;;;;;;25.46;21.83;100899.33;110547;1265;22739;-83
2023/06/05 12:24:41;;;;;;;3.40;1.80;;;;;;;25.44;21.50;100888.67;110702;1265;22008;-83
2023/06/05 12:27:17;;;;;;;4.60;2.10;;;;;;;25.45;21.74;100885.54;110786;1265;21997;-81
2023/06/05 12:29:58;;;;;;;3.10;1.70;;;;;;;25.53;21.64;100882.48;110689;1260;21987;-83
2023/06/05 12:32:30;;;;;;;6.20;1.40;;;;;;;25.58;21.34;100884.75;110840;1260;21966;-83
2023/06/05 12:35:22;;;;;;;7.80;1.60;;;;;;;25.50;21.17;100885.23;110875;1261;22689;-86
2023/06/05 12:38:10;;;;;;;3.50;2.50;;;;;;;25.29;21.26;100880.83;109987;1264;21967;-84
2023/06/05 12:40:55;;;;;;;3.90;1.80;;;;;;;25.28;21.36;100877.33;110355;1268;21968;-83
2023/06/05 12:44:09;;;;;;;3.50;1.60;;;;;;;25.29;21.24;100875.59;110191;1268;21977;-81
2023/06/05 12:47:26;;;;;;;4.80;3.10;;;;;;;25.24;21.02;100870.89;110063;1268;21993;-84
2023/06/05 12:50:26;;;;;;;5.50;1.50;;;;;;;25.24;20.92;100870.75;110040;1263;21982;-83
2023/06/05 12:53:25;;;;;;;6.50;1.80;;;;;;;25.17;20.45;100867.25;110948;1262;21937;-82
2023/06/05 12:56:02;;;;;;;3.20;1.40;;;;;;;25.22;20.78;100864.29;111216;1257;22065;-81
2023/06/05 12:58:51;;;;;;;5.50;2.00;;;;;;;25.28;20.63;100862.20;110523;1261;21959;-80
2023/06/05 13:01:36;;;;;;;3.60;2.50;;;;;;;25.33;20.83;100859.27;110693;1261;21981;-82
2023/06/05 13:04:42;;;;;;;;;;;;;;;;;;;;;
2023/06/05 13:08:06;;;;;;;6.10;1.90;;;;;;;25.45;21.15;100856.38;110895;1261;23587;-81
2023/06/05 13:11:17;;;;;;;;;;;;;;;;;;;;;
2023/06/05 13:14:41;;;;;;;2.00;1.10;;;;;;;25.36;21.69;100850.77;110390;1266;22277;-81
2023/06/05 13:17:37;;;;;;;3.50;1.80;;;;;;;25.38;21.80;100852.90;110822;1260;22707;-81
2023/06/05 13:20:49;;;;;;;;;;;;;;;;;;;;;
2023/06/05 13:23:51;;;;;;;3.20;1.60;;;;;;;25.31;21.44;100843.22;110621;1253;22673;-84
2023/06/05 13:26:53;;;;;;;3.70;1.90;;;;;;;25.30;21.45;100839.88;110483;1265;21972;-82
2023/06/05 13:30:08;;;;;;;4.70;1.10;;;;;;;25.22;21.24;100840.63;110734;1261;21959;-81
2023/06/05 13:33:25;;;;;;;;;;;;;;;;;;;;;
2023/06/05 13:36:55;;;;;;;3.90;1.90;;;;;;;25.02;21.08;100834.42;110249;1270;23295;-83
2023/06/05 13:40:27;;;;;;;;;;;;;;;;;;;;;
2023/06/05 13:43:57;;;;;;;;;;;;;;;;;;;;;
2023/06/05 13:47:09;;;;;;;;;;;;;;;;;;;;;
2023/06/05 13:50:56;;;;;;;2.90;1.60;;;;;;;25.25;21.37;100821.88;110525;1265;22589;-82
2023/06/05 13:54:30;;;;;;;2.70;1.40;;;;;;;25.35;21.62;100816.61;110236;1262;22066;-83
2023/06/05 13:57:28;;;;;;;3.40;1.60;;;;;;;25.49;21.89;100812.29;110715;1261;21967;-81
2023/06/05 14:00:13;;;;;;;4.60;1.80;;;;;;;25.61;21.92;100808.03;110884;1261;21956;-83
2023/06/05 14:03:22;;;;;;;6.10;1.70;;;;;;;25.64;21.92;100806.96;110752;1261;23763;-81
2023/06/05 14:06:30;;;;;;;14.40;2.30;;;;;;;25.69;22.00;100805.46;110278;1268;22003;-84
2023/06/05 14:09:33;;;;;;;6.10;2.80;;;;;;;25.70;21.99;100799.85;110009;1268;22088;-86
2023/06/05 14:12:43;;;;;;;4.90;2.80;;;;;;;25.69;21.80;100796.87;109961;1268;24023;-86
2023/06/05 14:16:09;;;;;;;3.60;1.60;;;;;;;25.60;21.74;100796.14;110510;1268;21976;-82
2023/06/05 14:19:31;;;;;;;5.00;2.60;;;;;;;25.56;21.86;100793.56;110230;1268;23367;-86
2023/06/05 14:22:43;;;;;;;3.80;1.60;;;;;;;25.53;21.97;100800.52;109572;1268;21940;-85
2023/06/05 14:25:36;;;;;;;3.10;1.70;;;;;;;25.41;21.67;100797.92;110410;1262;24386;-86
2023/06/05 14:29:35;;;;;;;5.30;1.70;;;;;;;25.22;21.83;100798.44;109885;1270;22821;-85
2023/06/05 14:33:18;;;;;;;5.50;1.90;;;;;;;25.18;21.84;100798.04;109588;1274;23759;-84
2023/06/05 14:36:49;;;;;;;;;;;;;;;;;;;;;
2023/06/05 14:39:51;;;;;;;6.90;1.90;;;;;;;25.25;21.73;100787.45;109140;1278;22456;-86
2023/06/05 14:43:10;;;;;;;2.40;1.80;;;;;;;25.29;21.77;100785.15;109454;1278;24332;-84
2023/06/05 14:46:22;;;;;;;;;;;;;;;;;;;;;
2023/06/05 14:50:05;;;;;;;;;;;;;;;;;;;;;
2023/06/05 14:53:27;;;;;;;3.50;1.90;;;;;;;25.26;21.93;100776.13;109567;1269;22111;-85
2023/06/05 14:57:03;;;;;;;2.60;1.60;;;;;;;25.28;21.90;100770.98;109676;1272;22001;-83
2023/06/05 15:00:04;;;;;;;2.00;1.60;;;;;;;25.30;21.80;100768.08;109877;1272;21981;-82
2023/06/05 15:02:48;;;;;;;3.30;1.70;;;;;;;25.36;21.79;100765.31;109814;1272;23631;-83
2023/06/05 15:05:25;;;;;;;3.20;1.90;;;;;;;25.38;21.63;100761.01;109820;1272;22041;-83
2023/06/05 15:08:13;;;;;;;6.70;3.10;;;;;;;25.37;21.76;100765.70;109756;1272;21987;-84
2023/06/05 15:11:09;;;;;;;;;;;;;;;;;;;;;
2023/06/05 15:15:20;;;;;;;;;;;;;;;;;;;;;
2023/06/05 15:18:57;;;;;;;5.90;2.10;;;;;;;25.17;22.27;100757.58;110567;1266;22390;-83
2023/06/05 15:23:17;;;;;;;;;;;;;;;;;;;;;
2023/06/05 15:27:02;;;;;;;;;;;;;;;25.08;22.60;100752.19;108857;1281;21992;-85
2023/06/05 15:30:36;;;;;;;;;;;;;;;;;;;;;
2023/06/05 15:34:24;;;;;;;5.70;3.00;;;;;;;25.05;22.36;100750.81;108769;1280;23673;-82
2023/06/05 15:37:22;;;;;;;;;;;;;;;;;;;;;
2023/06/05 15:40:26;;;;;;;7.50;2.10;;;;;;;25.09;22.45;100749.58;108914;1278;23637;-83
2023/06/05 15:43:32;;;;;;;4.40;1.80;;;;;;;25.10;22.32;100750.20;108776;1283;22074;-83
2023/06/05 15:46:33;;;;;;;4.40;1.90;;;;;;;25.08;22.32;100750.55;108783;1283;23635;-84
2023/06/05 15:49:40;;;;;;;;;;;;;;;;;;;;;
2023/06/05 15:52:40;;;;;;;;;;;;;;;;;;;;;
2023/06/05 15:55:17;;;;;;;4.30;1.60;;;;;;;25.00;22.66;100748.48;108620;1283;22445;-83
2023/06/05 15:58:00;;;;;;;3.60;1.90;;;;;;;25.03;22.78;100745.38;108621;1279;21857;-84
2023/06/05 16:00:56;;;;;;;2.80;1.90;;;;;;;25.04;22.67;100740.45;109120;1280;22009;-85
2023/06/05 16:04:10;;;;;;;;;;;;;;;;;;;;;
2023/06/05 16:07:57;;;;;;;4.40;3.50;;;;;;;24.96;22.57;100740.98;109614;1273;21997;-85
2023/06/05 16:12:04;;;;;;;;;;;;;;;;;;;;;
2023/06/05 16:15:46;;;;;;;5.70;2.80;;;;;;;24.92;22.73;100738.70;109548;1272;22068;-82
2023/06/05 16:19:13;;;;;;;6.80;2.00;;;;;;;24.90;22.70;100733.69;109519;1267;21987;-81